Unity N — V7WI2 — position and weather

sailwx.info

Track history (hours):
 
Tides and Currents Weather Stations Pressure Air Temp Water Temp Dewpoint Dewpoint Depression Visibility Wind Speed Wind Dir Waves Ship Positions

Unity N

Last reported at 2017-Sep-27 20:10 UTC. Time now 2017-Nov-20 00:07 UTC.
Position N 01°14' E 103°55'.
Warning: this ship's position is 53 days out of date.

Length 229 m; draft 8 m.

Type: Cargo ship. MMSI: 538006451.

Date/timePositionNaut miles runAvg speedWind from/ knotsBaromVisibWave heightAir tempDewpointWater temp
2017-Sep-27 20:10N 01°14' E 103°55'0 2.3
2017-Sep-27 20:00N 01°14' E 103°56'1 2.2
2017-Sep-27 19:30N 01°14' E 103°57'1 2.5
2017-Sep-27 19:00N 01°15' E 103°58'1 2.5
2017-Sep-27 18:30N 01°15' E 103°59'1 2.4
2017-Sep-27 18:00N 01°15' E 104°00'1 2.3
2017-Sep-27 17:30N 01°16' E 104°01'1 1.9
2017-Sep-27 17:00N 01°17' E 104°02'1 1.2
2017-Sep-27 16:30N 01°17' E 104°02'1 1.2
2017-Sep-27 16:00N 01°18' E 104°03'4110.0
2017-Sep-27 11:54N 01°17' E 103°22'511.0
2017-Sep-27 11:29N 01°14' E 103°26'510.8
2017-Sep-27 11:00N 01°13' E 103°31'510.5
2017-Sep-27 10:30N 01°12' E 103°36'5 9.8
2017-Sep-27 10:00N 01°11' E 103°41'5 9.1
2017-Sep-27 09:30N 01°08' E 103°45'5 9.1
2017-Sep-27 09:00N 01°11' E 103°49'5 9.1
2017-Sep-27 08:30N 01°13' E 103°53'5 9.5
2017-Sep-27 08:00N 01°14' E 103°57'5 9.2
2017-Sep-27 07:26N 01°16' E 104°02'2 3.8
2017-Sep-27 06:58N 01°18' E 104°03'0 0.0
2017-Sep-27 05:41N 01°18' E 104°03'0 0.0
2017-Sep-27 05:29N 01°18' E 104°03'0 0.0
2017-Sep-27 04:33N 01°18' E 104°03'0 0.0
2017-Sep-27 04:22N 01°18' E 104°03'0 0.0
2017-Sep-27 03:59N 01°18' E 104°03'0 0.0
2017-Sep-27 03:24N 01°18' E 104°03'0 0.0
2017-Sep-27 02:14N 01°18' E 104°03'0 0.8
2017-Sep-27 02:00N 01°18' E 104°03'0 0.8
2017-Sep-27 01:30N 01°18' E 104°04'1 1.4
2017-Sep-27 01:00N 01°18' E 104°04'1 2.0
2017-Sep-27 00:27N 01°18' E 104°05'1 1.6
2017-Sep-27 00:00N 01°18' E 104°06'1 1.2
2017-Sep-26 23:29N 01°18' E 104°07'1 0.8
2017-Sep-26 22:42N 01°17' E 104°07'0 0.7
2017-Sep-26 22:30N 01°17' E 104°07'0 0.8
2017-Sep-26 22:00N 01°17' E 104°08'5 1.5
2017-Sep-26 18:43N 01°18' E 104°03'0 0.0
2017-Sep-26 18:19N 01°18' E 104°03'0 0.0
2017-Sep-26 17:49N 01°18' E 104°03'0 0.0
2017-Sep-26 17:25N 01°18' E 104°03'0 0.1
2017-Sep-26 16:19N 01°18' E 104°03'0 0.2
2017-Sep-26 15:58N 01°18' E 104°03'0 0.0
2017-Sep-26 14:19N 01°18' E 104°03'1 3.9
2017-Sep-26 14:00N 01°18' E 104°04'  
2017-Sep-20 11:01N 21°55' E 119°18'011.1
2017-Sep-20 11:00N 21°55' E 119°18'1110.5
2017-Sep-20 09:57N 22°05' E 119°24'511.0
2017-Sep-20 09:30N 22°09' E 119°27'611.1
2017-Sep-20 09:00N 22°14' E 119°30'611.3
2017-Sep-20 08:27N 22°19' E 119°33'511.4
2017-Sep-20 08:00N 22°23' E 119°36'611.1
2017-Sep-20 07:30N 22°28' E 119°39'611.1
2017-Sep-20 07:01N 22°33' E 119°42'611.0
2017-Sep-20 06:31N 22°38' E 119°45'611.2
2017-Sep-20 06:00N 22°42' E 119°48'510.7
2017-Sep-20 05:31N 22°48' E 119°50'612.0
2017-Sep-20 05:01N 22°54' E 119°50'611.9
2017-Sep-20 04:30N 22°59' E 119°51'611.6
2017-Sep-20 04:00N 23°05' E 119°52'510.4
2017-Sep-20 03:30N 23°11' E 119°52'5 9.7
2017-Sep-20 02:58N 23°16' E 119°52'6 8.9
2017-Sep-20 02:20N 23°21' E 119°53'9 8.0
2017-Sep-20 01:14N 23°30' E 119°53'2 7.3
2017-Sep-20 01:00N 23°32' E 119°53'4 7.1
2017-Sep-20 00:29N 23°35' E 119°54'3 7.0
2017-Sep-19 23:59N 23°39' E 119°55'4 7.3
2017-Sep-19 23:29N 23°42' E 119°56'5 8.1
2017-Sep-19 22:55N 23°47' E 119°57'4 8.5
2017-Sep-19 22:30N 23°50' E 119°58'5 9.1
2017-Sep-19 22:00N 23°55' E 119°59'5 9.8
2017-Sep-19 21:30N 23°59' E 120°00'510.2
2017-Sep-19 21:00N 24°04' E 120°02'510.5
2017-Sep-19 20:29N 24°09' E 120°03'510.7
2017-Sep-19 19:59N 24°15' E 120°05'510.9
2017-Sep-19 19:30N 24°20' E 120°08'510.7
2017-Sep-19 19:00N 24°24' E 120°09'510.8
2017-Sep-19 18:30N 24°30' E 120°11'510.1
2017-Sep-19 18:00N 24°34' E 120°13'510.4
2017-Sep-19 17:30N 24°39' E 120°15'510.6
2017-Sep-19 17:00N 24°44' E 120°16'510.8
2017-Sep-19 16:30N 24°49' E 120°18'510.9
2017-Sep-19 16:00N 24°55' E 120°20'511.0
2017-Sep-19 15:31N 24°60' E 120°22'610.9
2017-Sep-19 15:00N 25°04' E 120°26'611.2
2017-Sep-19 14:30N 25°08' E 120°30'611.3
2017-Sep-19 14:01N 25°13' E 120°34'25210.6
2017-Sep-18 14:19N 28°41' E 123°13'310.3
2017-Sep-18 14:00N 28°44' E 123°15'  
Track history (hours):
 
Tides and Currents Weather Stations Pressure Air Temp Water Temp Dewpoint Dewpoint Depression Visibility Wind Speed Wind Dir Waves Ship Positions

Unity N

Last reported at 2017-Sep-27 20:10 UTC. Time now 2017-Nov-20 00:07 UTC.
Position N 01°14' E 103°55'.
Warning: this ship's position is 53 days out of date.

Length 229 m; draft 8 m.

Type: Cargo ship. MMSI: 538006451.

Date/timePositionNaut miles runAvg speedWind from/ knotsBaromVisibWave heightAir tempDewpointWater temp
2017-Sep-27 20:10N 01°14' E 103°55'0 2.3
2017-Sep-27 20:00N 01°14' E 103°56'1 2.2
2017-Sep-27 19:30N 01°14' E 103°57'1 2.5
2017-Sep-27 19:00N 01°15' E 103°58'1 2.5
2017-Sep-27 18:30N 01°15' E 103°59'1 2.4
2017-Sep-27 18:00N 01°15' E 104°00'1 2.3
2017-Sep-27 17:30N 01°16' E 104°01'1 1.9
2017-Sep-27 17:00N 01°17' E 104°02'1 1.2
2017-Sep-27 16:30N 01°17' E 104°02'1 1.2
2017-Sep-27 16:00N 01°18' E 104°03'4110.0
2017-Sep-27 11:54N 01°17' E 103°22'511.0
2017-Sep-27 11:29N 01°14' E 103°26'510.8
2017-Sep-27 11:00N 01°13' E 103°31'510.5
2017-Sep-27 10:30N 01°12' E 103°36'5 9.8
2017-Sep-27 10:00N 01°11' E 103°41'5 9.1
2017-Sep-27 09:30N 01°08' E 103°45'5 9.1
2017-Sep-27 09:00N 01°11' E 103°49'5 9.1
2017-Sep-27 08:30N 01°13' E 103°53'5 9.5
2017-Sep-27 08:00N 01°14' E 103°57'5 9.2
2017-Sep-27 07:26N 01°16' E 104°02'2 3.8
2017-Sep-27 06:58N 01°18' E 104°03'0 0.0
2017-Sep-27 05:41N 01°18' E 104°03'0 0.0
2017-Sep-27 05:29N 01°18' E 104°03'0 0.0
2017-Sep-27 04:33N 01°18' E 104°03'0 0.0
2017-Sep-27 04:22N 01°18' E 104°03'0 0.0
2017-Sep-27 03:59N 01°18' E 104°03'0 0.0
2017-Sep-27 03:24N 01°18' E 104°03'0 0.0
2017-Sep-27 02:14N 01°18' E 104°03'0 0.8
2017-Sep-27 02:00N 01°18' E 104°03'0 0.8
2017-Sep-27 01:30N 01°18' E 104°04'1 1.4
2017-Sep-27 01:00N 01°18' E 104°04'1 2.0
2017-Sep-27 00:27N 01°18' E 104°05'1 1.6
2017-Sep-27 00:00N 01°18' E 104°06'1 1.2
2017-Sep-26 23:29N 01°18' E 104°07'1 0.8
2017-Sep-26 22:42N 01°17' E 104°07'0 0.7
2017-Sep-26 22:30N 01°17' E 104°07'0 0.8
2017-Sep-26 22:00N 01°17' E 104°08'5 1.5
2017-Sep-26 18:43N 01°18' E 104°03'0 0.0
2017-Sep-26 18:19N 01°18' E 104°03'0 0.0
2017-Sep-26 17:49N 01°18' E 104°03'0 0.0
2017-Sep-26 17:25N 01°18' E 104°03'0 0.1
2017-Sep-26 16:19N 01°18' E 104°03'0 0.2
2017-Sep-26 15:58N 01°18' E 104°03'0 0.0
2017-Sep-26 14:19N 01°18' E 104°03'1 3.9
2017-Sep-26 14:00N 01°18' E 104°04'  
2017-Sep-20 11:01N 21°55' E 119°18'011.1
2017-Sep-20 11:00N 21°55' E 119°18'1110.5
2017-Sep-20 09:57N 22°05' E 119°24'511.0
2017-Sep-20 09:30N 22°09' E 119°27'611.1
2017-Sep-20 09:00N 22°14' E 119°30'611.3
2017-Sep-20 08:27N 22°19' E 119°33'511.4
2017-Sep-20 08:00N 22°23' E 119°36'611.1
2017-Sep-20 07:30N 22°28' E 119°39'611.1
2017-Sep-20 07:01N 22°33' E 119°42'611.0
2017-Sep-20 06:31N 22°38' E 119°45'611.2
2017-Sep-20 06:00N 22°42' E 119°48'510.7
2017-Sep-20 05:31N 22°48' E 119°50'612.0
2017-Sep-20 05:01N 22°54' E 119°50'611.9
2017-Sep-20 04:30N 22°59' E 119°51'611.6
2017-Sep-20 04:00N 23°05' E 119°52'510.4
2017-Sep-20 03:30N 23°11' E 119°52'5 9.7
2017-Sep-20 02:58N 23°16' E 119°52'6 8.9
2017-Sep-20 02:20N 23°21' E 119°53'9 8.0
2017-Sep-20 01:14N 23°30' E 119°53'2 7.3
2017-Sep-20 01:00N 23°32' E 119°53'4 7.1
2017-Sep-20 00:29N 23°35' E 119°54'3 7.0
2017-Sep-19 23:59N 23°39' E 119°55'4 7.3
2017-Sep-19 23:29N 23°42' E 119°56'5 8.1
2017-Sep-19 22:55N 23°47' E 119°57'4 8.5
2017-Sep-19 22:30N 23°50' E 119°58'5 9.1
2017-Sep-19 22:00N 23°55' E 119°59'5 9.8
2017-Sep-19 21:30N 23°59' E 120°00'510.2
2017-Sep-19 21:00N 24°04' E 120°02'510.5
2017-Sep-19 20:29N 24°09' E 120°03'510.7
2017-Sep-19 19:59N 24°15' E 120°05'510.9
2017-Sep-19 19:30N 24°20' E 120°08'510.7
2017-Sep-19 19:00N 24°24' E 120°09'510.8
2017-Sep-19 18:30N 24°30' E 120°11'510.1
2017-Sep-19 18:00N 24°34' E 120°13'510.4
2017-Sep-19 17:30N 24°39' E 120°15'510.6
2017-Sep-19 17:00N 24°44' E 120°16'510.8
2017-Sep-19 16:30N 24°49' E 120°18'510.9
2017-Sep-19 16:00N 24°55' E 120°20'511.0
2017-Sep-19 15:31N 24°60' E 120°22'610.9
2017-Sep-19 15:00N 25°04' E 120°26'611.2
2017-Sep-19 14:30N 25°08' E 120°30'611.3
2017-Sep-19 14:01N 25°13' E 120°34'25210.6
2017-Sep-18 14:19N 28°41' E 123°13'310.3
2017-Sep-18 14:00N 28°44' E 123°15'  

Dump ship's entire track history